createdAt,value
2023-05-18T00:01:40.902Z,75.96
2023-05-18T00:04:08.234Z,76.20
2023-05-18T00:06:38.620Z,76.32
2023-05-18T00:09:05.793Z,76.66
2023-05-18T00:11:33.572Z,76.53
2023-05-18T00:14:00.822Z,76.91
2023-05-18T00:16:27.834Z,77.02
2023-05-18T00:18:54.800Z,77.07
2023-05-18T00:21:22.586Z,77.27
2023-05-18T00:23:50.526Z,77.58
2023-05-18T00:26:17.533Z,77.56
2023-05-18T00:28:44.559Z,77.62
2023-05-18T00:31:11.793Z,77.93
2023-05-18T00:33:38.813Z,78.01
2023-05-18T00:36:06.271Z,77.97
2023-05-18T00:38:33.680Z,78.22
2023-05-18T00:41:00.540Z,78.12
2023-05-18T00:43:27.587Z,78.41
2023-05-18T00:45:54.761Z,78.14
2023-05-18T00:48:21.835Z,78.93
2023-05-18T00:50:48.594Z,78.46
2023-05-18T00:53:15.807Z,78.81
2023-05-18T00:55:42.736Z,78.68
2023-05-18T00:58:09.905Z,79.00
2023-05-18T01:00:37.769Z,78.87
2023-05-18T01:03:05.147Z,78.94
2023-05-18T01:05:32.324Z,79.39
2023-05-18T01:08:00.057Z,79.45
2023-05-18T01:10:27.222Z,79.57
2023-05-18T01:12:59.579Z,79.71
2023-05-18T01:15:34.355Z,79.65
2023-05-18T01:18:23.468Z,79.85
2023-05-18T01:20:59.678Z,79.98
2023-05-18T01:23:45.303Z,80.12
2023-05-18T01:26:17.118Z,80.43
2023-05-18T01:28:46.512Z,80.14
2023-05-18T01:31:16.034Z,80.41
2023-05-18T01:33:43.743Z,80.63
2023-05-18T01:36:11.352Z,80.67
2023-05-18T01:38:39.399Z,80.79
2023-05-18T01:41:14.202Z,81.06
2023-05-18T01:44:19.134Z,81.10
2023-05-18T01:47:02.893Z,81.10
2023-05-18T01:49:45.378Z,81.34
2023-05-18T01:52:20.725Z,81.51
2023-05-18T01:54:52.327Z,81.75
2023-05-18T01:57:21.758Z,81.87
2023-05-18T01:59:48.715Z,81.81
2023-05-18T02:02:16.114Z,81.94
2023-05-18T02:04:43.221Z,82.12
2023-05-18T02:07:10.007Z,82.00
2023-05-18T02:09:36.894Z,82.18
2023-05-18T02:12:04.168Z,82.36
2023-05-18T02:14:31.065Z,82.60
2023-05-18T02:16:57.858Z,82.40
2023-05-18T02:19:25.432Z,82.77
2023-05-18T02:21:52.448Z,82.94
2023-05-18T02:24:19.527Z,83.02
2023-05-18T02:26:46.446Z,83.00
2023-05-18T02:29:14.600Z,83.10
2023-05-18T02:31:41.927Z,83.50
2023-05-18T02:34:09.357Z,83.43
2023-05-18T02:36:42.829Z,83.71
2023-05-18T02:39:13.166Z,84.00
2023-05-18T02:41:40.106Z,83.87
2023-05-18T02:44:07.200Z,83.89
2023-05-18T02:46:34.222Z,83.84
2023-05-18T02:49:01.201Z,83.80
2023-05-18T02:51:28.456Z,83.94
2023-05-18T02:53:55.967Z,84.10
2023-05-18T02:56:23.300Z,84.00
2023-05-18T02:58:50.617Z,83.95
2023-05-18T03:01:17.454Z,83.80
2023-05-18T03:03:44.582Z,84.00
2023-05-18T03:06:11.693Z,84.24
2023-05-18T03:08:41.001Z,84.48
2023-05-18T03:11:07.969Z,84.33
2023-05-18T03:13:34.701Z,84.58
2023-05-18T03:16:01.646Z,84.68
2023-05-18T03:18:28.634Z,84.70
2023-05-18T03:20:56.262Z,84.65
2023-05-18T03:23:23.381Z,84.94
2023-05-18T03:25:53.658Z,84.86
2023-05-18T03:28:20.842Z,84.54
2023-05-18T03:30:48.068Z,84.60
2023-05-18T03:33:14.984Z,85.15
2023-05-18T03:35:42.203Z,84.78
2023-05-18T03:38:09.133Z,85.15
2023-05-18T03:40:36.404Z,84.97
2023-05-18T03:43:03.793Z,85.24
2023-05-18T03:45:31.089Z,85.23
2023-05-18T03:47:58.184Z,85.30
2023-05-18T03:50:25.426Z,85.23
2023-05-18T03:52:53.055Z,85.17
2023-05-18T03:55:21.510Z,85.49
2023-05-18T03:57:48.952Z,85.46
2023-05-18T04:00:16.364Z,85.53
2023-05-18T04:02:43.516Z,85.73
2023-05-18T04:05:10.857Z,85.85
2023-05-18T04:07:44.107Z,85.85
2023-05-18T04:10:12.439Z,85.73
2023-05-18T04:12:39.592Z,85.89
2023-05-18T04:15:07.132Z,85.61
2023-05-18T04:17:35.513Z,85.75
2023-05-18T04:20:11.486Z,85.29
2023-05-18T04:22:43.302Z,85.55
2023-05-18T04:25:14.531Z,85.35
2023-05-18T04:27:49.122Z,85.36
2023-05-18T04:30:18.765Z,85.02
2023-05-18T04:32:46.098Z,84.98
2023-05-18T04:35:13.382Z,84.74
2023-05-18T04:37:40.932Z,85.37
2023-05-18T04:40:08.429Z,84.99
2023-05-18T04:42:38.225Z,85.15
2023-05-18T04:45:06.206Z,84.98
2023-05-18T04:47:33.293Z,84.88
2023-05-18T04:50:00.265Z,84.84
2023-05-18T04:52:30.738Z,84.98
2023-05-18T04:54:57.845Z,84.25
2023-05-18T04:57:24.801Z,84.11
2023-05-18T04:59:53.203Z,83.62
2023-05-18T05:02:20.367Z,83.42
2023-05-18T05:04:47.239Z,83.09
2023-05-18T05:07:14.318Z,82.42
2023-05-18T05:09:41.416Z,82.08
2023-05-18T05:12:08.696Z,81.78
2023-05-18T05:14:35.617Z,81.34
2023-05-18T05:17:02.805Z,80.98
2023-05-18T05:19:29.765Z,80.60
2023-05-18T05:21:56.751Z,80.36
2023-05-18T05:24:23.648Z,79.43
2023-05-18T05:26:50.575Z,79.13
2023-05-18T05:29:17.240Z,79.16
2023-05-18T05:31:44.440Z,78.78
2023-05-18T05:34:11.997Z,78.22
2023-05-18T05:36:39.425Z,78.00
2023-05-18T05:39:06.335Z,77.56
2023-05-18T05:41:33.147Z,77.35
2023-05-18T05:44:00.206Z,77.38
2023-05-18T05:46:27.126Z,77.41
2023-05-18T05:48:54.065Z,77.16
2023-05-18T05:51:20.926Z,76.68
2023-05-18T05:53:49.349Z,76.20
2023-05-18T05:56:16.402Z,75.24
2023-05-18T05:58:44.283Z,74.71
2023-05-18T06:01:11.223Z,74.06
2023-05-18T06:03:38.914Z,73.19
2023-05-18T06:06:06.393Z,72.34
2023-05-18T06:08:34.492Z,71.60
2023-05-18T06:11:01.430Z,70.82
2023-05-18T06:13:28.300Z,69.94
2023-05-18T06:15:55.362Z,69.44
2023-05-18T06:18:22.321Z,69.58
2023-05-18T06:20:49.470Z,68.96
2023-05-18T06:23:16.228Z,68.23
2023-05-18T06:25:43.050Z,68.11
2023-05-18T06:28:10.452Z,67.74
2023-05-18T06:30:37.344Z,66.88
2023-05-18T06:33:04.761Z,66.95
2023-05-18T06:35:31.983Z,64.55
2023-05-18T06:37:59.303Z,63.09
2023-05-18T06:40:26.289Z,62.20
2023-05-18T06:42:53.221Z,61.76
2023-05-18T06:45:19.937Z,62.86
2023-05-18T06:47:46.636Z,62.18
2023-05-18T06:50:13.754Z,61.40
2023-05-18T06:52:41.052Z,60.68
2023-05-18T06:55:09.146Z,60.35
2023-05-18T06:57:36.264Z,59.49
2023-05-18T07:00:07.059Z,59.02
2023-05-18T07:02:34.253Z,58.71
2023-05-18T07:05:01.544Z,57.98
2023-05-18T07:07:28.417Z,58.32
2023-05-18T07:09:55.360Z,58.24
2023-05-18T07:12:22.576Z,57.53
2023-05-18T07:14:49.706Z,57.24
2023-05-18T07:17:16.577Z,56.79
2023-05-18T07:19:43.636Z,56.75
2023-05-18T07:22:10.573Z,56.33
2023-05-18T07:24:37.454Z,56.66
2023-05-18T07:27:04.652Z,56.08
2023-05-18T07:29:31.963Z,55.55
2023-05-18T07:31:58.924Z,55.22
2023-05-18T07:34:27.362Z,54.79
2023-05-18T07:36:54.162Z,54.90
2023-05-18T07:39:28.502Z,55.19
2023-05-18T07:41:56.181Z,54.71
2023-05-18T07:44:24.272Z,53.58
2023-05-18T07:46:51.559Z,53.74
2023-05-18T07:49:18.578Z,53.30
2023-05-18T07:51:45.653Z,53.79
2023-05-18T07:54:12.848Z,52.22
2023-05-18T07:56:40.849Z,51.83
2023-05-18T07:59:09.178Z,52.12
2023-05-18T08:01:37.686Z,51.87
2023-05-18T08:04:04.872Z,51.13
2023-05-18T08:06:31.999Z,51.06
2023-05-18T08:08:58.771Z,50.49
2023-05-18T08:11:25.781Z,50.67
2023-05-18T08:13:52.584Z,51.46
2023-05-18T08:16:19.442Z,52.00
2023-05-18T08:18:46.222Z,51.88
2023-05-18T08:21:13.861Z,51.96
2023-05-18T08:23:40.772Z,51.18
2023-05-18T08:26:09.043Z,50.32
2023-05-18T08:28:36.822Z,49.99
2023-05-18T08:31:03.529Z,49.49
2023-05-18T08:33:32.306Z,47.93
2023-05-18T08:35:59.342Z,48.73
2023-05-18T08:38:26.344Z,47.86
2023-05-18T08:41:01.724Z,48.24
2023-05-18T08:43:33.438Z,46.86
2023-05-18T08:46:19.524Z,46.94
2023-05-18T08:48:47.217Z,47.76
2023-05-18T08:51:19.908Z,47.65
2023-05-18T08:53:52.674Z,46.22
2023-05-18T08:56:23.092Z,46.23
2023-05-18T08:58:52.479Z,46.72
2023-05-18T09:01:19.238Z,47.25
2023-05-18T09:03:50.919Z,47.36
2023-05-18T09:06:19.331Z,47.25
2023-05-18T09:08:47.103Z,46.69
2023-05-18T09:11:14.945Z,46.53
2023-05-18T09:13:43.298Z,45.72
2023-05-18T09:16:10.243Z,44.87
2023-05-18T09:18:37.053Z,45.11
2023-05-18T09:21:03.891Z,43.31
2023-05-18T09:23:30.953Z,43.90
2023-05-18T09:25:59.746Z,43.36
2023-05-18T09:28:35.395Z,43.88
2023-05-18T09:31:03.765Z,43.88
2023-05-18T09:33:37.835Z,43.91
2023-05-18T09:36:08.916Z,44.03
2023-05-18T09:38:40.623Z,43.52
2023-05-18T09:41:12.614Z,42.70
2023-05-18T09:43:40.328Z,42.48
2023-05-18T09:46:11.675Z,42.50
2023-05-18T09:48:42.997Z,42.20
2023-05-18T09:51:16.760Z,41.02
2023-05-18T09:53:49.698Z,41.55
2023-05-18T09:56:18.007Z,41.92
2023-05-18T09:58:45.675Z,41.78
2023-05-18T10:01:12.870Z,42.15
2023-05-18T10:03:40.556Z,41.55
2023-05-18T10:06:13.412Z,40.26
2023-05-18T10:08:40.835Z,39.11
2023-05-18T10:11:07.950Z,38.84
2023-05-18T10:13:35.617Z,38.77
2023-05-18T10:16:05.662Z,38.50
2023-05-18T10:18:35.507Z,39.03
2023-05-18T10:21:04.923Z,38.94
2023-05-18T10:23:34.017Z,38.55
2023-05-18T10:26:00.958Z,38.03
2023-05-18T10:28:38.038Z,37.92
2023-05-18T10:31:06.677Z,37.72
2023-05-18T10:33:35.882Z,38.31
2023-05-18T10:36:04.946Z,38.40
2023-05-18T10:38:33.620Z,37.89
2023-05-18T10:41:01.259Z,38.12
2023-05-18T10:43:28.690Z,37.16
2023-05-18T10:45:58.813Z,36.56
2023-05-18T10:48:26.648Z,36.57
2023-05-18T10:50:55.588Z,36.54
2023-05-18T10:53:26.806Z,37.05
2023-05-18T10:55:54.431Z,37.32
2023-05-18T10:58:25.601Z,36.73
2023-05-18T11:00:55.383Z,36.32
2023-05-18T11:03:22.517Z,36.58
2023-05-18T11:05:52.824Z,36.57
2023-05-18T11:08:30.093Z,36.46
2023-05-18T11:11:07.293Z,35.68
2023-05-18T11:13:43.448Z,36.94
2023-05-18T11:16:10.582Z,36.79
2023-05-18T11:18:50.973Z,36.60
2023-05-18T11:21:21.666Z,35.50
2023-05-18T11:24:07.555Z,34.83
2023-05-18T11:26:38.887Z,34.58
2023-05-18T11:29:19.973Z,35.09
2023-05-18T11:31:48.891Z,35.55
2023-05-18T11:34:48.265Z,36.25
2023-05-18T11:37:16.684Z,36.45
2023-05-18T11:40:00.119Z,35.98
2023-05-18T11:42:36.766Z,34.73
2023-05-18T11:45:11.010Z,35.64
2023-05-18T11:47:40.531Z,35.62
2023-05-18T11:50:09.135Z,34.95
2023-05-18T11:52:51.606Z,34.68
2023-05-18T11:55:20.567Z,34.15
2023-05-18T11:57:56.172Z,33.66
2023-05-18T12:00:25.060Z,33.45
2023-05-18T12:02:52.833Z,33.86
2023-05-18T12:05:20.910Z,33.35
2023-05-18T12:07:52.679Z,32.97
2023-05-18T12:10:22.407Z,32.00
2023-05-18T12:12:52.113Z,31.23
2023-05-18T12:15:22.507Z,32.65
2023-05-18T12:17:51.208Z,32.44
2023-05-18T12:20:19.041Z,32.11
2023-05-18T12:22:50.292Z,30.79
2023-05-18T12:25:17.557Z,30.47
2023-05-18T12:27:47.783Z,30.56
2023-05-18T12:30:19.213Z,30.68
2023-05-18T12:32:49.759Z,30.70
2023-05-18T12:35:17.222Z,30.57
2023-05-18T12:37:45.777Z,29.90
2023-05-18T12:40:14.922Z,29.36
2023-05-18T12:42:53.400Z,28.19
2023-05-18T12:45:23.728Z,27.56
2023-05-18T12:47:55.450Z,27.25
2023-05-18T12:50:24.898Z,26.19
2023-05-18T12:52:51.910Z,26.31
2023-05-18T12:55:22.855Z,25.13
2023-05-18T12:58:05.832Z,23.63
2023-05-18T13:00:34.086Z,22.25
2023-05-18T13:03:17.752Z,22.02
2023-05-18T13:05:47.074Z,21.82
2023-05-18T13:08:16.461Z,20.55
2023-05-18T13:10:45.093Z,19.75
2023-05-18T13:13:16.294Z,19.83
2023-05-18T13:15:44.207Z,19.45
2023-05-18T13:18:12.032Z,18.28
2023-05-18T13:20:49.673Z,18.82
2023-05-18T13:23:18.999Z,18.28
2023-05-18T13:25:48.834Z,18.32
2023-05-18T13:28:17.525Z,18.03
2023-05-18T13:30:45.798Z,17.37
2023-05-18T13:33:12.732Z,17.15
2023-05-18T13:35:44.238Z,18.20
2023-05-18T13:38:12.653Z,17.83
2023-05-18T13:40:40.399Z,17.66
2023-05-18T13:43:08.229Z,17.66
2023-05-18T13:45:36.181Z,17.08
2023-05-18T13:48:09.547Z,17.27
2023-05-18T13:50:38.049Z,17.07
2023-05-18T13:53:05.104Z,17.53
2023-05-18T13:55:33.262Z,16.90
2023-05-18T13:58:00.848Z,16.33
2023-05-18T14:00:27.852Z,16.12
2023-05-18T14:02:54.966Z,16.59
2023-05-18T14:05:22.293Z,16.34
2023-05-18T14:07:50.217Z,16.38
2023-05-18T14:10:17.732Z,15.74
2023-05-18T14:12:44.764Z,15.88
2023-05-18T14:15:16.044Z,16.19
2023-05-18T14:17:43.693Z,16.53
2023-05-18T14:20:12.056Z,16.39
2023-05-18T14:22:39.028Z,16.27
2023-05-18T14:25:06.440Z,16.09
2023-05-18T14:27:33.071Z,17.09
2023-05-18T14:30:00.109Z,16.81
2023-05-18T14:32:26.871Z,17.64
2023-05-18T14:34:56.598Z,18.20
2023-05-18T14:37:23.668Z,19.42
2023-05-18T14:39:50.706Z,20.99
2023-05-18T14:42:17.705Z,21.31
2023-05-18T14:44:45.099Z,21.51
2023-05-18T14:47:11.850Z,21.79
2023-05-18T14:49:38.743Z,21.40
2023-05-18T14:52:06.285Z,21.20
2023-05-18T14:54:33.210Z,20.76
2023-05-18T14:57:01.281Z,20.37
2023-05-18T14:59:28.235Z,19.49
2023-05-18T15:01:55.229Z,19.57
2023-05-18T15:04:22.257Z,19.99
2023-05-18T15:06:52.394Z,19.16
2023-05-18T15:09:19.399Z,19.58
2023-05-18T15:11:46.518Z,20.13
2023-05-18T15:14:13.245Z,20.18
2023-05-18T15:16:40.130Z,20.33
2023-05-18T15:19:07.140Z,19.92
2023-05-18T15:21:34.428Z,19.37
2023-05-18T15:24:01.694Z,18.83
2023-05-18T15:26:28.569Z,18.38
2023-05-18T15:28:56.366Z,17.75
2023-05-18T15:31:22.988Z,17.62
2023-05-18T15:33:50.021Z,17.67
2023-05-18T15:36:16.827Z,17.80
2023-05-18T15:38:43.603Z,18.40
2023-05-18T15:41:10.818Z,18.77
2023-05-18T15:43:39.095Z,19.29
2023-05-18T15:46:06.166Z,20.44
2023-05-18T15:48:32.899Z,21.63
2023-05-18T15:50:59.771Z,22.52
2023-05-18T15:53:26.416Z,23.26
2023-05-18T15:55:57.506Z,23.86
2023-05-18T15:58:26.562Z,23.80
2023-05-18T16:00:53.841Z,23.87
2023-05-18T16:03:20.975Z,23.62
2023-05-18T16:05:48.321Z,24.26
2023-05-18T16:08:15.059Z,25.11
2023-05-18T16:10:41.826Z,24.92
2023-05-18T16:13:09.099Z,25.04
2023-05-18T16:15:35.970Z,25.41
2023-05-18T16:18:03.017Z,25.46
2023-05-18T16:20:30.507Z,25.25
2023-05-18T16:22:58.389Z,25.36
2023-05-18T16:25:26.277Z,25.90
2023-05-18T16:27:52.884Z,26.05
2023-05-18T16:30:19.597Z,26.17
2023-05-18T16:32:47.015Z,25.84
2023-05-18T16:35:13.739Z,25.96
2023-05-18T16:37:40.840Z,25.84
2023-05-18T16:40:08.401Z,25.43
2023-05-18T16:42:35.339Z,25.51
2023-05-18T16:45:02.686Z,24.98
2023-05-18T16:47:32.676Z,25.42
2023-05-18T16:49:59.952Z,25.19
2023-05-18T16:52:26.997Z,24.93
2023-05-18T16:54:53.780Z,24.24
2023-05-18T16:57:21.099Z,24.29
2023-05-18T16:59:47.840Z,24.02
2023-05-18T17:02:15.533Z,23.64
2023-05-18T17:04:42.941Z,23.39
2023-05-18T17:07:09.921Z,23.77
2023-05-18T17:09:40.131Z,23.24
2023-05-18T17:12:08.081Z,23.10
2023-05-18T17:14:35.282Z,22.73
2023-05-18T17:17:02.011Z,22.35
2023-05-18T17:19:29.040Z,22.05
2023-05-18T17:21:56.624Z,22.55
2023-05-18T17:24:24.758Z,22.38
2023-05-18T17:26:51.936Z,22.89
2023-05-18T17:29:21.034Z,23.07
2023-05-18T17:31:48.981Z,23.50
2023-05-18T17:34:16.181Z,23.62
2023-05-18T17:36:42.772Z,24.10
2023-05-18T17:39:09.617Z,25.01
2023-05-18T17:41:36.953Z,25.63
2023-05-18T17:44:04.026Z,26.14
2023-05-18T17:46:30.917Z,26.84
2023-05-18T17:48:57.918Z,27.74
2023-05-18T17:51:25.030Z,28.56
2023-05-18T17:53:51.728Z,29.41
2023-05-18T17:56:18.552Z,30.20
2023-05-18T17:58:46.008Z,30.67
2023-05-18T18:01:13.082Z,31.21
2023-05-18T18:03:40.258Z,31.78
2023-05-18T18:06:07.244Z,32.04
2023-05-18T18:08:34.268Z,32.26
2023-05-18T18:11:00.888Z,32.55
2023-05-18T18:13:27.935Z,33.07
2023-05-18T18:15:54.613Z,33.12
2023-05-18T18:18:21.502Z,33.13
2023-05-18T18:20:48.407Z,33.19
2023-05-18T18:23:15.779Z,32.80
2023-05-18T18:25:44.093Z,33.08
2023-05-18T18:28:15.334Z,33.14
2023-05-18T18:30:44.560Z,33.38
2023-05-18T18:33:11.722Z,33.89
2023-05-18T18:35:38.679Z,34.04
2023-05-18T18:38:05.707Z,34.57
2023-05-18T18:40:33.999Z,34.90
2023-05-18T18:43:01.387Z,35.29
2023-05-18T18:45:30.060Z,35.72
2023-05-18T18:47:56.987Z,35.99
2023-05-18T18:50:23.869Z,36.44
2023-05-18T18:52:50.748Z,36.78
2023-05-18T18:55:18.048Z,37.08
2023-05-18T18:57:45.820Z,37.60
2023-05-18T19:00:15.054Z,37.90
2023-05-18T19:02:41.808Z,38.62
2023-05-18T19:05:09.778Z,38.93
2023-05-18T19:07:36.780Z,39.61
2023-05-18T19:10:04.561Z,40.34
2023-05-18T19:12:32.950Z,41.06
2023-05-18T19:14:59.885Z,41.73
2023-05-18T19:17:26.972Z,42.37
2023-05-18T19:19:54.046Z,43.36
2023-05-18T19:22:20.856Z,44.00
2023-05-18T19:24:47.707Z,44.25
2023-05-18T19:27:14.460Z,44.73
2023-05-18T19:29:41.072Z,45.32
2023-05-18T19:32:08.006Z,45.91
2023-05-18T19:34:35.160Z,47.06
2023-05-18T19:37:01.876Z,47.25
2023-05-18T19:39:28.921Z,47.99
2023-05-18T19:41:55.617Z,48.03
2023-05-18T19:44:22.310Z,48.47
2023-05-18T19:46:48.915Z,49.15
2023-05-18T19:49:16.105Z,49.27
2023-05-18T19:51:43.145Z,49.57
2023-05-18T19:54:10.271Z,50.02
2023-05-18T19:56:37.198Z,50.55
2023-05-18T19:59:04.280Z,51.07
2023-05-18T20:01:32.319Z,51.32
2023-05-18T20:03:59.992Z,51.63
2023-05-18T20:06:29.274Z,52.36
2023-05-18T20:08:55.812Z,52.44
2023-05-18T20:11:22.770Z,53.03
2023-05-18T20:13:49.776Z,53.07
2023-05-18T20:16:16.623Z,53.01
2023-05-18T20:18:45.973Z,53.16
2023-05-18T20:21:12.906Z,52.98
2023-05-18T20:23:39.479Z,53.12
2023-05-18T20:26:06.742Z,53.59
2023-05-18T20:28:34.498Z,53.59
2023-05-18T20:31:04.307Z,54.22
2023-05-18T20:33:34.320Z,54.26
2023-05-18T20:36:01.844Z,54.40
2023-05-18T20:38:29.026Z,54.68
2023-05-18T20:40:58.264Z,55.00
2023-05-18T20:43:25.284Z,55.03
2023-05-18T20:45:52.584Z,56.20
2023-05-18T20:48:26.912Z,56.08
2023-05-18T20:50:53.827Z,55.84
2023-05-18T20:53:20.597Z,56.04
2023-05-18T20:55:47.812Z,56.16
2023-05-18T20:58:18.536Z,56.95
2023-05-18T21:00:46.598Z,57.40
2023-05-18T21:03:14.013Z,57.43
2023-05-18T21:05:41.485Z,57.45
2023-05-18T21:08:08.618Z,57.88
2023-05-18T21:10:35.986Z,57.97
2023-05-18T21:13:03.389Z,58.39
2023-05-18T21:15:31.585Z,58.80
2023-05-18T21:17:58.741Z,58.91
2023-05-18T21:20:26.003Z,59.15
2023-05-18T21:22:53.391Z,59.25
2023-05-18T21:25:20.741Z,59.53
2023-05-18T21:27:48.065Z,59.79
2023-05-18T21:30:15.949Z,60.11
2023-05-18T21:32:43.672Z,60.24
2023-05-18T21:35:10.774Z,60.22
2023-05-18T21:37:37.772Z,60.44
2023-05-18T21:40:05.243Z,60.53
2023-05-18T21:42:33.300Z,60.92
2023-05-18T21:45:00.098Z,61.22
2023-05-18T21:47:26.726Z,61.22
2023-05-18T21:49:53.781Z,61.23
2023-05-18T21:52:20.772Z,61.27
2023-05-18T21:54:48.014Z,61.60
2023-05-18T21:57:14.712Z,61.52
2023-05-18T21:59:41.453Z,61.72
2023-05-18T22:02:08.507Z,61.97
2023-05-18T22:04:35.612Z,62.17
2023-05-18T22:07:02.611Z,62.58
2023-05-18T22:09:29.270Z,62.55
2023-05-18T22:11:56.090Z,62.42
2023-05-18T22:14:22.874Z,62.90
2023-05-18T22:16:49.788Z,62.88
2023-05-18T22:19:16.934Z,63.18
2023-05-18T22:21:43.945Z,63.31
2023-05-18T22:24:10.728Z,63.45
2023-05-18T22:26:37.609Z,63.34
2023-05-18T22:29:04.688Z,63.61
2023-05-18T22:31:32.750Z,63.72
2023-05-18T22:34:00.008Z,64.02
2023-05-18T22:36:27.473Z,64.03
2023-05-18T22:38:54.391Z,63.79
2023-05-18T22:41:22.520Z,64.01
2023-05-18T22:43:49.182Z,64.44
2023-05-18T22:46:15.939Z,64.09
2023-05-18T22:48:42.939Z,64.40
2023-05-18T22:51:10.168Z,64.55
2023-05-18T22:53:37.139Z,64.60
2023-05-18T22:56:06.882Z,64.78
2023-05-18T22:58:33.695Z,64.91
2023-05-18T23:01:01.039Z,64.74
2023-05-18T23:03:27.734Z,64.82
2023-05-18T23:05:54.733Z,64.54
2023-05-18T23:08:22.202Z,64.81
2023-05-18T23:10:50.709Z,64.83
2023-05-18T23:13:17.522Z,64.94
2023-05-18T23:15:44.407Z,64.66
2023-05-18T23:18:12.561Z,64.92
2023-05-18T23:20:40.042Z,64.93
2023-05-18T23:23:06.940Z,65.15
2023-05-18T23:25:37.157Z,65.30
2023-05-18T23:28:06.953Z,65.23
2023-05-18T23:30:33.977Z,65.58
2023-05-18T23:33:01.540Z,65.61
2023-05-18T23:35:28.914Z,65.86
2023-05-18T23:37:57.732Z,65.88
2023-05-18T23:40:25.216Z,65.77
2023-05-18T23:42:52.229Z,65.82
2023-05-18T23:45:20.022Z,66.02
2023-05-18T23:47:47.664Z,66.22
2023-05-18T23:50:15.930Z,66.42
2023-05-18T23:52:47.032Z,66.33
2023-05-18T23:55:14.497Z,66.50
2023-05-18T23:57:41.774Z,66.53
